createdAt,value
2023-05-14T00:00:14.908Z,75.67
2023-05-14T00:01:14.885Z,74.35
2023-05-14T00:02:14.900Z,72.72
2023-05-14T00:03:14.942Z,74.04
2023-05-14T00:04:14.915Z,74.55
2023-05-14T00:05:14.825Z,74.04
2023-05-14T00:06:14.825Z,75.06
2023-05-14T00:07:14.795Z,75.06
2023-05-14T00:08:14.804Z,74.45
2023-05-14T00:09:14.798Z,73.23
2023-05-14T00:10:14.774Z,73.94
2023-05-14T00:11:14.745Z,74.65
2023-05-14T00:12:14.739Z,75.67
2023-05-14T00:13:14.735Z,75.16
2023-05-14T00:14:14.731Z,75.57
2023-05-14T00:15:14.691Z,75.16
2023-05-14T00:16:14.799Z,75.16
2023-05-14T00:17:14.664Z,76.48
2023-05-14T00:18:14.681Z,77.40
2023-05-14T00:19:14.796Z,76.42
2023-05-14T00:20:14.637Z,75.60
2023-05-14T00:21:14.648Z,76.72
2023-05-14T00:22:14.650Z,76.42
2023-05-14T00:23:14.609Z,77.13
2023-05-14T00:24:14.583Z,76.42
2023-05-14T00:25:14.558Z,76.21
2023-05-14T00:26:14.554Z,76.62
2023-05-14T00:27:14.566Z,76.01
2023-05-14T00:28:14.542Z,75.50
2023-05-14T00:29:14.508Z,76.62
2023-05-14T00:30:14.508Z,76.45
2023-05-14T00:31:14.557Z,76.96
2023-05-14T00:32:14.500Z,76.45
2023-05-14T00:33:14.464Z,76.65
2023-05-14T00:34:14.451Z,75.64
2023-05-14T00:35:14.439Z,75.74
2023-05-14T00:36:14.421Z,76.76
2023-05-14T00:37:14.427Z,76.25
2023-05-14T00:38:14.388Z,76.15
2023-05-14T00:39:14.373Z,75.95
2023-05-14T00:40:14.380Z,76.76
2023-05-14T00:41:14.395Z,76.65
2023-05-14T00:42:14.370Z,76.45
2023-05-14T00:43:14.317Z,77.67
2023-05-14T00:44:14.336Z,77.78
2023-05-14T00:45:14.305Z,77.57
2023-05-14T00:46:14.387Z,77.40
2023-05-14T00:47:14.291Z,78.83
2023-05-14T00:48:14.267Z,78.73
2023-05-14T00:49:14.255Z,79.44
2023-05-14T00:50:14.255Z,78.53
2023-05-14T00:51:14.239Z,78.12
2023-05-14T00:52:14.221Z,77.71
2023-05-14T00:53:14.203Z,79.03
2023-05-14T00:54:14.178Z,78.73
2023-05-14T00:55:14.176Z,78.26
2023-05-14T00:56:14.180Z,76.69
2023-05-14T00:57:14.147Z,78.83
2023-05-14T00:58:14.146Z,78.63
2023-05-14T00:59:14.124Z,78.63
2023-05-14T01:00:14.112Z,78.66
2023-05-14T01:01:14.132Z,77.75
2023-05-14T01:02:14.090Z,77.55
2023-05-14T01:03:14.190Z,79.27
2023-05-14T01:04:14.043Z,77.64
2023-05-14T01:05:14.054Z,77.64
2023-05-14T01:06:14.059Z,78.66
2023-05-14T01:07:14.022Z,78.26
2023-05-14T01:08:13.993Z,75.51
2023-05-14T01:09:14.001Z,78.56
2023-05-14T01:10:13.986Z,79.27
2023-05-14T01:11:13.958Z,79.99
2023-05-14T01:12:13.967Z,79.89
2023-05-14T01:13:13.981Z,79.89
2023-05-14T01:14:13.930Z,79.68
2023-05-14T01:15:13.921Z,79.07
2023-05-14T01:16:13.985Z,79.79
2023-05-14T01:17:13.872Z,80.09
2023-05-14T01:18:13.902Z,79.48
2023-05-14T01:19:13.877Z,78.87
2023-05-14T01:20:13.863Z,77.44
2023-05-14T01:21:13.818Z,77.64
2023-05-14T01:22:13.823Z,79.72
2023-05-14T01:23:13.806Z,79.21
2023-05-14T01:24:13.801Z,80.43
2023-05-14T01:25:13.769Z,79.72
2023-05-14T01:26:13.766Z,79.41
2023-05-14T01:27:13.752Z,79.72
2023-05-14T01:28:13.756Z,79.41
2023-05-14T01:29:13.737Z,79.72
2023-05-14T01:30:13.710Z,80.13
2023-05-14T01:31:13.696Z,80.84
2023-05-14T01:32:13.711Z,80.57
2023-05-14T01:33:13.681Z,80.68
2023-05-14T01:34:13.676Z,81.49
2023-05-14T01:35:13.633Z,81.18
2023-05-14T01:36:13.623Z,80.88
2023-05-14T01:37:13.620Z,81.18
2023-05-14T01:38:13.607Z,80.16
2023-05-14T01:39:13.591Z,80.88
2023-05-14T01:40:13.576Z,80.41
2023-05-14T01:41:13.574Z,80.10
2023-05-14T01:42:13.558Z,81.02
2023-05-14T01:43:13.578Z,81.02
2023-05-14T01:44:13.535Z,80.82
2023-05-14T01:45:13.524Z,80.91
2023-05-14T01:46:13.567Z,81.32
2023-05-14T01:47:13.490Z,80.82
2023-05-14T01:48:13.501Z,80.51
2023-05-14T01:49:13.459Z,80.30
2023-05-14T01:50:13.461Z,80.04
2023-05-14T01:51:13.415Z,79.93
2023-05-14T01:52:13.429Z,80.65
2023-05-14T01:53:13.411Z,81.87
2023-05-14T01:54:13.404Z,81.05
2023-05-14T01:55:13.374Z,81.37
2023-05-14T01:56:13.365Z,81.37
2023-05-14T01:57:13.374Z,80.69
2023-05-14T01:58:13.345Z,80.38
2023-05-14T01:59:13.322Z,80.58
2023-05-14T02:00:13.329Z,80.69
2023-05-14T02:01:13.330Z,82.22
2023-05-14T02:02:13.302Z,82.01
2023-05-14T02:03:13.295Z,82.73
2023-05-14T02:04:13.344Z,82.63
2023-05-14T02:05:13.254Z,81.60
2023-05-14T02:06:13.266Z,81.91
2023-05-14T02:07:13.216Z,82.12
2023-05-14T02:08:13.231Z,82.53
2023-05-14T02:09:13.181Z,82.93
2023-05-14T02:10:13.199Z,83.54
2023-05-14T02:11:13.186Z,83.34
2023-05-14T02:12:13.165Z,83.04
2023-05-14T02:13:13.137Z,82.73
2023-05-14T02:14:13.129Z,82.93
2023-05-14T02:15:13.130Z,82.93
2023-05-14T02:16:13.253Z,82.32
2023-05-14T02:17:13.094Z,83.44
2023-05-14T02:18:13.202Z,84.06
2023-05-14T02:19:13.104Z,83.85
2023-05-14T02:20:13.077Z,83.14
2023-05-14T02:21:13.051Z,83.48
2023-05-14T02:22:13.018Z,84.50
2023-05-14T02:23:13.024Z,83.79
2023-05-14T02:24:13.010Z,83.69
2023-05-14T02:25:13.061Z,83.48
2023-05-14T02:26:13.022Z,82.46
2023-05-14T02:27:12.955Z,82.26
2023-05-14T02:28:12.946Z,82.77
2023-05-14T02:29:12.924Z,82.36
2023-05-14T02:30:12.922Z,83.38
2023-05-14T02:31:12.953Z,83.89
2023-05-14T02:32:12.950Z,83.89
2023-05-14T02:33:13.032Z,84.26
2023-05-14T02:34:12.870Z,84.16
2023-05-14T02:35:12.869Z,84.06
2023-05-14T02:36:12.854Z,83.85
2023-05-14T02:37:12.824Z,83.34
2023-05-14T02:38:12.843Z,83.44
2023-05-14T02:39:12.840Z,82.63
2023-05-14T02:40:12.828Z,82.01
2023-05-14T02:41:12.792Z,81.95
2023-05-14T02:42:12.776Z,81.44
2023-05-14T02:43:12.742Z,81.74
2023-05-14T02:44:12.758Z,80.83
2023-05-14T02:45:12.746Z,80.32
2023-05-14T02:46:12.753Z,80.52
2023-05-14T02:47:12.794Z,79.70
2023-05-14T02:48:12.713Z,81.85
2023-05-14T02:49:12.688Z,83.48
2023-05-14T02:50:12.673Z,82.97
2023-05-14T02:51:12.641Z,81.85
2023-05-14T02:52:12.635Z,80.52
2023-05-14T02:53:12.607Z,78.38
2023-05-14T02:54:12.637Z,78.58
2023-05-14T02:55:12.607Z,78.88
2023-05-14T02:56:12.578Z,79.46
2023-05-14T02:57:12.572Z,79.77
2023-05-14T02:58:12.578Z,81.20
2023-05-14T02:59:12.567Z,80.38
2023-05-14T03:00:12.523Z,81.81
2023-05-14T03:01:12.630Z,82.56
2023-05-14T03:02:12.574Z,82.26
2023-05-14T03:03:12.531Z,82.15
2023-05-14T03:04:12.505Z,80.62
2023-05-14T03:05:12.466Z,79.91
2023-05-14T03:06:12.458Z,79.19
2023-05-14T03:07:12.427Z,81.13
2023-05-14T03:08:12.456Z,79.60
2023-05-14T03:09:12.424Z,78.99
2023-05-14T03:10:12.419Z,79.29
2023-05-14T03:11:12.389Z,78.58
2023-05-14T03:12:12.415Z,79.46
2023-05-14T03:13:12.381Z,80.07
2023-05-14T03:14:12.336Z,79.77
2023-05-14T03:15:12.324Z,79.91
2023-05-14T03:16:12.326Z,81.13
2023-05-14T03:17:12.384Z,82.22
2023-05-14T03:18:12.294Z,81.65
2023-05-14T03:19:12.387Z,80.32
2023-05-14T03:20:12.257Z,79.09
2023-05-14T03:21:12.255Z,79.29
2023-05-14T03:22:12.256Z,79.91
2023-05-14T03:23:12.238Z,79.50
2023-05-14T03:24:12.234Z,82.42
2023-05-14T03:25:12.222Z,82.93
2023-05-14T03:26:12.193Z,83.04
2023-05-14T03:27:12.199Z,82.53
2023-05-14T03:28:12.172Z,82.42
2023-05-14T03:29:12.150Z,82.83
2023-05-14T03:30:12.142Z,82.22
2023-05-14T03:31:12.162Z,81.44
2023-05-14T03:32:12.136Z,80.93
2023-05-14T03:33:12.103Z,81.03
2023-05-14T03:34:12.096Z,82.42
2023-05-14T03:35:12.077Z,82.12
2023-05-14T03:36:12.070Z,80.99
2023-05-14T03:37:12.077Z,80.28
2023-05-14T03:38:12.030Z,80.89
2023-05-14T03:39:12.033Z,80.89
2023-05-14T03:40:12.011Z,81.10
2023-05-14T03:41:12.014Z,81.51
2023-05-14T03:42:11.969Z,80.79
2023-05-14T03:43:11.975Z,80.18
2023-05-14T03:44:11.980Z,78.85
2023-05-14T03:45:11.946Z,78.75
2023-05-14T03:46:11.944Z,77.01
2023-05-14T03:47:11.906Z,77.01
2023-05-14T03:48:11.948Z,76.60
2023-05-14T03:49:11.945Z,77.52
2023-05-14T03:50:11.908Z,79.77
2023-05-14T03:51:11.857Z,80.58
2023-05-14T03:52:11.849Z,80.58
2023-05-14T03:53:11.835Z,79.66
2023-05-14T03:54:11.830Z,77.69
2023-05-14T03:55:11.828Z,79.32
2023-05-14T03:56:11.802Z,79.52
2023-05-14T03:57:11.803Z,78.91
2023-05-14T03:58:11.771Z,77.28
2023-05-14T03:59:11.799Z,76.06
2023-05-14T04:00:11.763Z,77.38
2023-05-14T04:01:11.735Z,78.00
2023-05-14T04:02:11.763Z,78.27
2023-05-14T04:03:11.747Z,78.67
2023-05-14T04:04:11.961Z,79.08
2023-05-14T04:05:11.698Z,78.88
2023-05-14T04:06:11.674Z,77.55
2023-05-14T04:07:11.681Z,77.14
2023-05-14T04:08:11.640Z,78.27
2023-05-14T04:09:11.668Z,78.37
2023-05-14T04:10:11.610Z,77.96
2023-05-14T04:11:11.613Z,77.41
2023-05-14T04:12:11.581Z,78.84
2023-05-14T04:13:11.575Z,79.25
2023-05-14T04:14:11.574Z,78.84
2023-05-14T04:15:11.563Z,78.53
2023-05-14T04:16:11.598Z,79.66
2023-05-14T04:17:11.546Z,79.72
2023-05-14T04:18:11.578Z,79.41
2023-05-14T04:19:11.721Z,78.50
2023-05-14T04:20:11.494Z,77.48
2023-05-14T04:21:11.463Z,75.64
2023-05-14T04:22:11.454Z,74.90
2023-05-14T04:23:11.517Z,75.10
2023-05-14T04:24:11.417Z,74.99
2023-05-14T04:25:11.408Z,75.30
2023-05-14T04:26:11.419Z,75.06
2023-05-14T04:27:11.411Z,76.08
2023-05-14T04:28:11.403Z,76.59
2023-05-14T04:29:11.376Z,76.76
2023-05-14T04:30:11.392Z,77.13
2023-05-14T04:31:11.363Z,77.74
2023-05-14T04:32:11.323Z,77.70
2023-05-14T04:33:11.351Z,77.36
2023-05-14T04:34:11.297Z,76.58
2023-05-14T04:35:11.308Z,75.32
2023-05-14T04:36:11.257Z,71.94
2023-05-14T04:37:11.273Z,70.86
2023-05-14T04:38:11.272Z,69.92
2023-05-14T04:39:11.255Z,69.14
2023-05-14T04:40:11.293Z,68.70
2023-05-14T04:41:11.207Z,67.83
2023-05-14T04:42:11.207Z,66.18
2023-05-14T04:43:11.176Z,64.94
2023-05-14T04:44:11.176Z,64.67
2023-05-14T04:45:11.139Z,64.44
2023-05-14T04:46:11.197Z,63.50
2023-05-14T04:47:11.135Z,61.63
2023-05-14T04:48:11.140Z,60.89
2023-05-14T04:49:11.097Z,59.96
2023-05-14T04:50:11.091Z,59.03
2023-05-14T04:51:11.087Z,57.90
2023-05-14T04:52:11.055Z,57.06
2023-05-14T04:53:11.067Z,57.34
2023-05-14T04:54:11.087Z,57.11
2023-05-14T04:55:11.063Z,55.98
2023-05-14T04:56:11.025Z,55.88
2023-05-14T04:57:11.014Z,53.95
2023-05-14T04:58:10.972Z,53.82
2023-05-14T04:59:10.978Z,53.30
2023-05-14T05:00:10.943Z,52.09
2023-05-14T05:01:11.076Z,52.27
2023-05-14T05:02:10.929Z,51.46
2023-05-14T05:03:11.032Z,50.24
2023-05-14T05:04:11.069Z,50.84
2023-05-14T05:05:10.949Z,49.84
2023-05-14T05:06:10.884Z,49.52
2023-05-14T05:07:10.874Z,49.32
2023-05-14T05:08:10.851Z,48.42
2023-05-14T05:09:10.834Z,49.44
2023-05-14T05:10:10.831Z,49.91
2023-05-14T05:11:10.820Z,49.52
2023-05-14T05:12:10.821Z,48.61
2023-05-14T05:13:10.806Z,48.64
2023-05-14T05:14:10.773Z,49.24
2023-05-14T05:15:10.774Z,49.84
2023-05-14T05:16:10.869Z,49.11
2023-05-14T05:17:10.737Z,48.82
2023-05-14T05:18:10.779Z,48.69
2023-05-14T05:19:10.762Z,47.37
2023-05-14T05:20:10.733Z,47.87
2023-05-14T05:21:10.702Z,46.75
2023-05-14T05:22:10.685Z,47.05
2023-05-14T05:23:10.653Z,46.73
2023-05-14T05:24:10.641Z,46.23
2023-05-14T05:25:10.664Z,46.33
2023-05-14T05:26:10.611Z,46.53
2023-05-14T05:27:10.655Z,46.70
2023-05-14T05:28:10.598Z,45.59
2023-05-14T05:29:10.592Z,45.98
2023-05-14T05:30:10.579Z,45.66
2023-05-14T05:31:10.576Z,45.56
2023-05-14T05:32:10.532Z,44.35
2023-05-14T05:33:10.583Z,44.24
2023-05-14T05:34:10.552Z,44.84
2023-05-14T05:35:10.539Z,44.32
2023-05-14T05:36:10.486Z,44.50
2023-05-14T05:37:10.558Z,44.28
2023-05-14T05:38:10.455Z,43.86
2023-05-14T05:39:10.462Z,43.15
2023-05-14T05:40:10.454Z,42.85
2023-05-14T05:41:10.432Z,43.24
2023-05-14T05:42:10.403Z,41.97
2023-05-14T05:43:10.417Z,42.77
2023-05-14T05:44:10.399Z,43.05
2023-05-14T05:45:10.387Z,42.25
2023-05-14T05:46:10.385Z,42.43
2023-05-14T05:47:10.348Z,41.71
2023-05-14T05:48:10.325Z,41.89
2023-05-14T05:49:10.340Z,41.20
2023-05-14T05:50:10.328Z,41.47
2023-05-14T05:51:10.291Z,41.69
2023-05-14T05:52:10.323Z,41.17
2023-05-14T05:53:10.265Z,41.04
2023-05-14T05:54:10.273Z,40.03
2023-05-14T05:55:10.249Z,39.93
2023-05-14T05:56:10.225Z,39.91
2023-05-14T05:57:10.211Z,39.10
2023-05-14T05:58:10.227Z,38.70
2023-05-14T05:59:10.207Z,38.32
2023-05-14T06:00:10.176Z,39.45
2023-05-14T06:01:10.176Z,40.26
2023-05-14T06:02:10.197Z,40.48
2023-05-14T06:03:10.228Z,41.00
2023-05-14T06:04:10.143Z,40.41
2023-05-14T06:05:10.193Z,41.17
2023-05-14T06:06:10.125Z,40.74
2023-05-14T06:07:10.077Z,40.82
2023-05-14T06:08:10.107Z,39.69
2023-05-14T06:09:10.244Z,37.20
2023-05-14T06:10:10.053Z,37.89
2023-05-14T06:11:10.076Z,37.79
2023-05-14T06:12:10.020Z,38.75
2023-05-14T06:13:10.030Z,36.65
2023-05-14T06:14:10.034Z,35.96
2023-05-14T06:15:10.018Z,36.75
2023-05-14T06:16:10.035Z,36.65
2023-05-14T06:17:09.997Z,36.83
2023-05-14T06:18:10.020Z,37.01
2023-05-14T06:19:09.994Z,35.12
2023-05-14T06:20:09.931Z,35.83
2023-05-14T06:21:09.909Z,36.00
2023-05-14T06:22:09.912Z,35.43
2023-05-14T06:23:09.884Z,35.91
2023-05-14T06:24:09.890Z,34.92
2023-05-14T06:25:09.877Z,35.02
2023-05-14T06:26:09.866Z,35.33
2023-05-14T06:27:09.847Z,34.53
2023-05-14T06:28:09.816Z,34.92
2023-05-14T06:29:09.835Z,35.50
2023-05-14T06:30:09.815Z,35.18
2023-05-14T06:31:09.802Z,34.30
2023-05-14T06:32:09.888Z,34.67
2023-05-14T06:33:09.808Z,34.67
2023-05-14T06:34:09.744Z,34.36
2023-05-14T06:35:09.743Z,35.23
2023-05-14T06:36:09.750Z,34.33
2023-05-14T06:37:09.708Z,33.53
2023-05-14T06:38:09.683Z,32.61
2023-05-14T06:39:09.690Z,32.53
2023-05-14T06:40:09.662Z,33.02
2023-05-14T06:41:09.676Z,32.62
2023-05-14T06:42:09.653Z,33.10
2023-05-14T06:43:09.649Z,33.28
2023-05-14T06:44:09.635Z,33.65
2023-05-14T06:45:09.651Z,32.15
2023-05-14T06:46:09.588Z,31.96
2023-05-14T06:47:09.595Z,30.98
2023-05-14T06:48:09.694Z,32.45
2023-05-14T06:49:09.623Z,31.47
2023-05-14T06:50:10.807Z,31.19
2023-05-14T06:51:09.544Z,31.70
2023-05-14T06:52:09.517Z,32.27
2023-05-14T06:53:09.510Z,31.29
2023-05-14T06:54:09.522Z,31.60
2023-05-14T06:55:09.618Z,31.61
2023-05-14T06:56:09.460Z,32.20
2023-05-14T06:57:09.467Z,32.61
2023-05-14T06:58:09.440Z,32.64
2023-05-14T06:59:09.433Z,32.76
2023-05-14T07:00:09.438Z,33.34
2023-05-14T07:01:09.497Z,33.54
2023-05-14T07:02:09.382Z,34.11
2023-05-14T07:03:09.433Z,34.28
2023-05-14T07:04:09.448Z,33.28
2023-05-14T07:05:09.385Z,32.30
2023-05-14T07:06:09.935Z,32.09
2023-05-14T07:07:09.343Z,32.17
2023-05-14T07:08:09.321Z,31.19
2023-05-14T07:09:09.445Z,31.48
2023-05-14T07:10:09.310Z,30.71
2023-05-14T07:11:09.311Z,31.60
2023-05-14T07:12:09.266Z,31.41
2023-05-14T07:13:09.269Z,31.12
2023-05-14T07:14:09.268Z,31.53
2023-05-14T07:15:09.235Z,31.94
2023-05-14T07:16:09.236Z,32.04
2023-05-14T07:17:09.215Z,32.71
2023-05-14T07:18:09.296Z,31.51
2023-05-14T07:19:09.239Z,31.22
2023-05-14T07:20:09.915Z,31.90
2023-05-14T07:21:09.160Z,31.81
2023-05-14T07:22:09.148Z,31.79
2023-05-14T07:23:09.173Z,30.71
2023-05-14T07:24:09.135Z,30.91
2023-05-14T07:25:09.141Z,31.40
2023-05-14T07:26:09.159Z,32.87
2023-05-14T07:27:09.101Z,32.18
2023-05-14T07:28:09.148Z,31.68
2023-05-14T07:29:09.048Z,32.09
2023-05-14T07:30:09.060Z,31.71
2023-05-14T07:31:09.313Z,32.01
2023-05-14T07:32:09.061Z,32.69
2023-05-14T07:33:09.083Z,31.71
2023-05-14T07:34:09.029Z,31.90
2023-05-14T07:35:08.997Z,31.12
2023-05-14T07:36:08.979Z,32.20
2023-05-14T07:37:08.999Z,32.01
2023-05-14T07:38:08.990Z,31.81
2023-05-14T07:39:08.989Z,32.02
2023-05-14T07:40:08.934Z,32.04
2023-05-14T07:41:08.911Z,31.76
2023-05-14T07:42:08.924Z,32.54
2023-05-14T07:43:08.881Z,32.84
2023-05-14T07:44:08.939Z,33.13
2023-05-14T07:45:08.874Z,33.91
2023-05-14T07:46:08.855Z,32.41
2023-05-14T07:47:08.940Z,32.04
2023-05-14T07:48:09.101Z,32.72
2023-05-14T07:49:08.827Z,33.12
2023-05-14T07:50:08.820Z,33.00
2023-05-14T07:51:08.783Z,32.33
2023-05-14T07:52:08.824Z,32.82
2023-05-14T07:53:08.790Z,32.93
2023-05-14T07:54:08.780Z,32.74
2023-05-14T07:55:08.748Z,33.03
2023-05-14T07:56:08.715Z,33.23
2023-05-14T07:57:08.766Z,32.34
2023-05-14T07:58:08.711Z,32.64
2023-05-14T07:59:09.084Z,32.24
2023-05-14T08:00:09.034Z,31.46
2023-05-14T08:01:08.862Z,32.56
2023-05-14T08:02:08.727Z,33.86
2023-05-14T08:03:08.873Z,33.17
2023-05-14T08:04:08.727Z,33.56
2023-05-14T08:05:08.777Z,33.86
2023-05-14T08:06:08.614Z,34.44
2023-05-14T08:07:08.615Z,34.17
2023-05-14T08:08:08.618Z,33.39
2023-05-14T08:09:08.568Z,33.59
2023-05-14T08:10:08.550Z,34.97
2023-05-14T08:11:08.610Z,33.29
2023-05-14T08:12:08.551Z,33.98
2023-05-14T08:13:08.522Z,33.79
2023-05-14T08:14:08.508Z,33.79
2023-05-14T08:15:08.477Z,34.18
2023-05-14T08:16:08.509Z,32.60
2023-05-14T08:17:08.619Z,33.69
2023-05-14T08:18:08.494Z,34.38
2023-05-14T08:19:08.535Z,35.17
2023-05-14T08:20:08.436Z,35.17
2023-05-14T08:21:08.455Z,34.08
2023-05-14T08:22:08.397Z,34.48
2023-05-14T08:23:08.375Z,34.87
2023-05-14T08:24:08.390Z,34.49
2023-05-14T08:25:08.428Z,35.10
2023-05-14T08:26:08.391Z,35.02
2023-05-14T08:27:08.353Z,35.04
2023-05-14T08:28:08.371Z,35.63
2023-05-14T08:29:10.010Z,35.93
2023-05-14T08:30:08.341Z,36.71
2023-05-14T08:31:08.346Z,36.71
2023-05-14T08:32:16.040Z,36.82
2023-05-14T08:33:09.386Z,37.19
2023-05-14T08:34:08.249Z,37.37
2023-05-14T08:35:08.261Z,35.89
2023-05-14T08:36:08.212Z,35.50
2023-05-14T08:37:08.199Z,35.58
2023-05-14T08:38:08.198Z,35.58
2023-05-14T08:39:08.236Z,35.89
2023-05-14T08:40:08.168Z,34.41
2023-05-14T08:41:08.142Z,35.28
2023-05-14T08:42:08.163Z,34.89
2023-05-14T08:43:08.121Z,34.30
2023-05-14T08:44:08.142Z,35.88
2023-05-14T08:45:08.102Z,35.18
2023-05-14T08:46:08.087Z,35.97
2023-05-14T08:47:08.078Z,34.49
2023-05-14T08:48:08.153Z,34.34
2023-05-14T08:49:08.125Z,36.27
2023-05-14T08:50:08.048Z,36.59
2023-05-14T08:51:08.043Z,37.60
2023-05-14T08:52:08.035Z,37.51
2023-05-14T08:53:08.007Z,38.13
2023-05-14T08:54:08.005Z,39.22
2023-05-14T08:55:09.055Z,39.83
2023-05-14T08:56:07.985Z,38.94
2023-05-14T08:57:07.946Z,37.15
2023-05-14T08:58:08.006Z,37.43
2023-05-14T08:59:07.911Z,38.80
2023-05-14T09:00:07.910Z,36.88
2023-05-14T09:01:07.914Z,37.30
2023-05-14T09:02:07.945Z,38.37
2023-05-14T09:03:08.128Z,38.96
2023-05-14T09:04:07.958Z,38.45
2023-05-14T09:05:08.966Z,36.25
2023-05-14T09:06:07.852Z,36.95
2023-05-14T09:07:07.882Z,35.94
2023-05-14T09:08:07.823Z,38.21
2023-05-14T09:09:07.822Z,36.14
2023-05-14T09:10:07.795Z,37.92
2023-05-14T09:11:07.772Z,37.45
2023-05-14T09:12:07.777Z,37.74
2023-05-14T09:13:07.751Z,37.15
2023-05-14T09:14:07.733Z,35.17
2023-05-14T09:15:07.748Z,36.16
2023-05-14T09:16:07.908Z,35.49
2023-05-14T09:17:07.704Z,37.18
2023-05-14T09:18:07.718Z,36.72
2023-05-14T09:19:07.686Z,36.15
2023-05-14T09:20:07.647Z,38.85
2023-05-14T09:21:07.652Z,38.68
2023-05-14T09:22:07.651Z,38.88
2023-05-14T09:23:07.680Z,39.98
2023-05-14T09:24:07.612Z,40.11
2023-05-14T09:25:07.738Z,41.20
2023-05-14T09:26:07.676Z,40.33
2023-05-14T09:27:07.568Z,40.24
2023-05-14T09:28:07.571Z,42.23
2023-05-14T09:29:07.544Z,43.13
2023-05-14T09:30:07.555Z,41.53
2023-05-14T09:31:07.537Z,42.43
2023-05-14T09:32:07.886Z,42.05
2023-05-14T09:33:08.048Z,40.26
2023-05-14T09:34:07.460Z,41.47
2023-05-14T09:35:07.466Z,41.39
2023-05-14T09:36:07.475Z,40.90
2023-05-14T09:37:07.435Z,44.60
2023-05-14T09:38:07.439Z,42.33
2023-05-14T09:39:07.423Z,41.44
2023-05-14T09:40:07.430Z,43.13
2023-05-14T09:41:07.543Z,42.03
2023-05-14T09:42:07.377Z,42.43
2023-05-14T09:43:07.361Z,42.55
2023-05-14T09:44:07.373Z,42.75
2023-05-14T09:45:07.518Z,44.15
2023-05-14T09:46:07.338Z,44.15
2023-05-14T09:47:07.326Z,44.45
2023-05-14T09:48:07.473Z,44.45
2023-05-14T09:49:07.312Z,44.45
2023-05-14T09:50:07.312Z,45.14
2023-05-14T09:51:07.263Z,43.65
2023-05-14T09:52:07.254Z,44.65
2023-05-14T09:53:07.243Z,43.35
2023-05-14T09:54:07.245Z,44.45
2023-05-14T09:55:07.216Z,43.47
2023-05-14T09:56:07.189Z,44.46
2023-05-14T09:57:07.186Z,43.47
2023-05-14T09:58:07.196Z,42.89
2023-05-14T09:59:07.287Z,44.38
2023-05-14T10:00:07.134Z,45.18
2023-05-14T10:01:07.188Z,45.09
2023-05-14T10:02:07.110Z,44.49
2023-05-14T10:03:07.120Z,46.08
2023-05-14T10:04:07.147Z,45.89
2023-05-14T10:05:07.082Z,45.09
2023-05-14T10:06:07.052Z,45.09
2023-05-14T10:07:07.050Z,46.11
2023-05-14T10:08:07.059Z,45.61
2023-05-14T10:09:07.030Z,43.71
2023-05-14T10:10:07.016Z,44.23
2023-05-14T10:11:07.034Z,44.53
2023-05-14T10:12:07.009Z,46.25
2023-05-14T10:13:07.021Z,46.35
2023-05-14T10:14:06.965Z,45.55
2023-05-14T10:15:06.977Z,46.77
2023-05-14T10:16:06.931Z,46.77
2023-05-14T10:17:06.937Z,45.57
2023-05-14T10:18:06.984Z,45.57
2023-05-14T10:19:06.945Z,47.07
2023-05-14T10:20:06.965Z,46.17
2023-05-14T10:21:06.860Z,47.67
2023-05-14T10:22:06.866Z,46.87
2023-05-14T10:23:06.917Z,48.67
2023-05-14T10:24:06.833Z,46.77
2023-05-14T10:25:06.810Z,46.97
2023-05-14T10:26:06.791Z,47.37
2023-05-14T10:27:06.823Z,47.37
2023-05-14T10:28:06.768Z,46.47
2023-05-14T10:29:06.763Z,46.07
2023-05-14T10:30:06.793Z,47.67
2023-05-14T10:31:06.767Z,45.77
2023-05-14T10:32:06.767Z,45.67
2023-05-14T10:33:06.787Z,47.67
2023-05-14T10:34:06.694Z,48.14
2023-05-14T10:35:06.720Z,47.65
2023-05-14T10:36:06.686Z,46.15
2023-05-14T10:37:06.665Z,45.25
2023-05-14T10:38:06.653Z,45.75
2023-05-14T10:39:06.648Z,47.55
2023-05-14T10:40:06.650Z,49.02
2023-05-14T10:41:06.604Z,47.22
2023-05-14T10:42:06.604Z,46.23
2023-05-14T10:43:06.577Z,45.93
2023-05-14T10:44:06.562Z,47.42
2023-05-14T10:45:06.595Z,48.52
2023-05-14T10:46:06.572Z,49.42
2023-05-14T10:47:06.596Z,46.73
2023-05-14T10:48:06.544Z,48.02
2023-05-14T10:49:06.505Z,46.73
2023-05-14T10:50:06.495Z,47.03
2023-05-14T10:51:06.480Z,47.03
2023-05-14T10:52:06.476Z,46.83
2023-05-14T10:53:06.438Z,48.32
2023-05-14T10:54:06.430Z,47.83
2023-05-14T10:55:06.449Z,47.20
2023-05-14T10:56:06.456Z,47.20
2023-05-14T10:57:06.406Z,47.33
2023-05-14T10:58:06.378Z,48.22
2023-05-14T10:59:06.371Z,46.73
2023-05-14T11:00:06.378Z,47.80
2023-05-14T11:01:06.366Z,48.50
2023-05-14T11:02:06.430Z,47.90
2023-05-14T11:03:06.371Z,47.50
2023-05-14T11:04:06.319Z,48.20
2023-05-14T11:05:06.299Z,47.10
2023-05-14T11:06:06.287Z,47.90
2023-05-14T11:07:06.272Z,47.00
2023-05-14T11:08:06.261Z,46.41
2023-05-14T11:09:06.233Z,47.30
2023-05-14T11:10:06.377Z,47.40
2023-05-14T11:11:06.214Z,45.81
2023-05-14T11:12:06.204Z,45.09
2023-05-14T11:13:06.204Z,46.68
2023-05-14T11:14:07.961Z,46.66
2023-05-14T11:15:06.184Z,44.87
2023-05-14T11:16:15.571Z,44.54
2023-05-14T11:17:07.189Z,45.94
2023-05-14T11:18:06.206Z,46.44
2023-05-14T11:19:06.190Z,45.34
2023-05-14T11:20:06.116Z,45.64
2023-05-14T11:21:06.138Z,46.86
2023-05-14T11:22:06.075Z,46.78
2023-05-14T11:23:06.054Z,46.28
2023-05-14T11:24:06.063Z,45.21
2023-05-14T11:25:06.078Z,47.80
2023-05-14T11:26:06.064Z,47.40
2023-05-14T11:27:06.133Z,47.00
2023-05-14T11:28:06.003Z,47.50
2023-05-14T11:29:05.984Z,48.13
2023-05-14T11:30:05.986Z,49.12
2023-05-14T11:31:05.942Z,48.93
2023-05-14T11:32:06.126Z,49.62
2023-05-14T11:33:06.000Z,49.62
2023-05-14T11:34:05.926Z,48.70
2023-05-14T11:35:05.926Z,49.72
2023-05-14T11:36:05.903Z,49.50
2023-05-14T11:37:05.884Z,49.02
2023-05-14T11:38:07.904Z,48.93
2023-05-14T11:39:05.850Z,48.52
2023-05-14T11:40:05.833Z,49.44
2023-05-14T11:41:05.847Z,50.02
2023-05-14T11:42:05.806Z,47.40
2023-05-14T11:43:05.797Z,47.90
2023-05-14T11:44:08.459Z,48.50
2023-05-14T11:45:05.771Z,48.10
2023-05-14T11:46:05.824Z,47.30
2023-05-14T11:47:05.760Z,47.20
2023-05-14T11:48:05.757Z,47.80
2023-05-14T11:49:05.732Z,46.91
2023-05-14T11:50:07.249Z,48.38
2023-05-14T11:51:05.703Z,47.58
2023-05-14T11:52:05.707Z,46.46
2023-05-14T11:53:05.792Z,47.56
2023-05-14T11:54:05.654Z,47.16
2023-05-14T11:55:05.659Z,46.96
2023-05-14T11:56:07.706Z,48.35
2023-05-14T11:57:05.624Z,46.96
2023-05-14T11:58:05.601Z,47.48
2023-05-14T11:59:05.609Z,48.58
2023-05-14T12:00:05.579Z,47.38
2023-05-14T12:01:05.553Z,46.70
2023-05-14T12:02:05.624Z,48.50
2023-05-14T12:03:05.613Z,48.00
2023-05-14T12:04:05.612Z,48.60
2023-05-14T12:05:05.506Z,49.20
2023-05-14T12:06:05.507Z,48.20
2023-05-14T12:07:05.494Z,48.80
2023-05-14T12:08:05.461Z,49.40
2023-05-14T12:09:05.456Z,49.80
2023-05-14T12:10:05.516Z,50.20
2023-05-14T12:11:05.431Z,48.90
2023-05-14T12:12:05.544Z,49.12
2023-05-14T12:13:05.405Z,48.63
2023-05-14T12:14:05.379Z,49.32
2023-05-14T12:15:05.409Z,48.82
2023-05-14T12:16:05.504Z,49.02
2023-05-14T12:17:05.360Z,49.62
2023-05-14T12:18:13.629Z,50.12
2023-05-14T12:19:06.403Z,48.82
2023-05-14T12:20:05.313Z,48.43
2023-05-14T12:21:05.327Z,49.02
2023-05-14T12:22:05.272Z,47.83
2023-05-14T12:23:05.269Z,47.42
2023-05-14T12:24:05.249Z,48.52
2023-05-14T12:25:05.241Z,48.72
2023-05-14T12:26:05.247Z,48.30
2023-05-14T12:27:05.213Z,49.10
2023-05-14T12:28:05.214Z,48.08
2023-05-14T12:29:05.200Z,47.58
2023-05-14T12:31:05.251Z,49.10
2023-05-14T12:32:05.154Z,47.30
2023-05-14T12:33:05.240Z,47.00
2023-05-14T12:34:05.119Z,47.20
2023-05-14T12:35:05.120Z,47.71
2023-05-14T12:36:20.467Z,48.93
2023-05-14T12:37:06.093Z,48.30
2023-05-14T12:38:05.091Z,48.10
2023-05-14T12:39:05.068Z,48.60
2023-05-14T12:40:05.066Z,48.50
2023-05-14T12:41:05.030Z,48.38
2023-05-14T12:42:05.029Z,48.68
2023-05-14T12:43:05.004Z,48.68
2023-05-14T12:44:05.009Z,46.76
2023-05-14T12:45:05.070Z,46.86
2023-05-14T12:46:04.994Z,46.88
2023-05-14T12:47:04.984Z,47.38
2023-05-14T12:48:04.999Z,48.18
2023-05-14T12:49:04.976Z,48.68
2023-05-14T12:50:04.930Z,48.08
2023-05-14T12:51:05.036Z,48.78
2023-05-14T12:52:19.805Z,49.77
2023-05-14T12:53:05.876Z,46.58